createdAt,value
2022-09-24T00:01:26.346Z,11.71
2022-09-24T00:04:00.399Z,11.63
2022-09-24T00:06:29.628Z,11.57
2022-09-24T00:08:57.607Z,11.50
2022-09-24T00:11:26.832Z,11.40
2022-09-24T00:13:54.462Z,11.37
2022-09-24T00:16:23.631Z,11.31
2022-09-24T00:18:50.190Z,11.28
2022-09-24T00:21:23.421Z,11.28
2022-09-24T00:23:55.844Z,11.20
2022-09-24T00:26:41.921Z,11.17
2022-09-24T00:29:09.607Z,11.15
2022-09-24T00:31:36.704Z,11.18
2022-09-24T00:34:04.014Z,11.15
2022-09-24T00:36:30.853Z,11.09
2022-09-24T00:38:59.354Z,11.00
2022-09-24T00:41:32.098Z,10.91
2022-09-24T00:43:59.042Z,10.90
2022-09-24T00:46:43.134Z,10.95
2022-09-24T00:49:14.332Z,10.97
2022-09-24T00:51:44.118Z,11.04
2022-09-24T00:54:16.569Z,10.97
2022-09-24T00:56:45.941Z,10.94
2022-09-24T00:59:17.402Z,10.93
2022-09-24T01:01:48.670Z,10.92
2022-09-24T01:04:21.254Z,10.93
2022-09-24T01:06:52.229Z,10.95
2022-09-24T01:09:21.712Z,10.85
2022-09-24T01:12:16.770Z,10.82
2022-09-24T01:15:19.165Z,10.72
2022-09-24T01:17:54.325Z,10.62
2022-09-24T01:20:45.508Z,10.58
2022-09-24T01:23:27.382Z,10.59
2022-09-24T01:26:22.292Z,10.58
2022-09-24T01:29:07.082Z,10.54
2022-09-24T01:32:02.635Z,10.51
2022-09-24T01:34:35.336Z,10.49
2022-09-24T01:37:03.708Z,10.47
2022-09-24T01:39:33.077Z,10.44
2022-09-24T01:42:00.519Z,10.34
2022-09-24T01:44:27.371Z,10.26
2022-09-24T01:46:54.857Z,10.23
2022-09-24T01:49:21.650Z,10.35
2022-09-24T01:51:56.248Z,10.41
2022-09-24T01:54:33.043Z,10.46
2022-09-24T01:57:21.432Z,10.52
2022-09-24T02:00:05.390Z,10.63
2022-09-24T02:03:01.237Z,10.63
2022-09-24T02:05:36.884Z,10.65
2022-09-24T02:08:12.096Z,10.56
2022-09-24T02:11:01.263Z,10.61
2022-09-24T02:13:38.910Z,10.67
2022-09-24T02:16:07.970Z,10.66
2022-09-24T02:18:38.901Z,10.64
2022-09-24T02:21:11.099Z,10.74
2022-09-24T02:23:43.973Z,10.74
2022-09-24T02:26:11.370Z,10.73
2022-09-24T02:28:38.080Z,10.64
2022-09-24T02:31:17.123Z,10.66
2022-09-24T02:34:07.648Z,10.58
2022-09-24T02:36:34.840Z,10.51
2022-09-24T02:39:01.623Z,10.48
2022-09-24T02:41:30.114Z,10.42
2022-09-24T02:43:56.715Z,10.33
2022-09-24T02:46:24.648Z,10.28
2022-09-24T02:48:51.257Z,10.23
2022-09-24T02:51:17.704Z,10.25
2022-09-24T02:53:44.274Z,10.22
2022-09-24T02:56:11.319Z,10.15
2022-09-24T02:58:37.842Z,10.11
2022-09-24T03:01:05.512Z,10.11
2022-09-24T03:03:32.593Z,10.11
2022-09-24T03:05:59.116Z,10.14
2022-09-24T03:08:26.294Z,10.10
2022-09-24T03:10:52.900Z,10.07
2022-09-24T03:13:19.475Z,10.07
2022-09-24T03:15:46.887Z,10.07
2022-09-24T03:18:14.587Z,10.05
2022-09-24T03:20:41.637Z,10.02
2022-09-24T03:23:08.190Z,9.99
2022-09-24T03:25:34.813Z,10.01
2022-09-24T03:28:01.510Z,9.91
2022-09-24T03:30:46.691Z,9.93
2022-09-24T03:33:13.951Z,9.93
2022-09-24T03:35:40.481Z,9.84
2022-09-24T03:38:06.997Z,9.87
2022-09-24T03:40:33.639Z,9.91
2022-09-24T03:43:00.219Z,9.86
2022-09-24T03:45:26.836Z,9.80
2022-09-24T03:47:53.332Z,9.84
2022-09-24T03:50:19.909Z,9.86
2022-09-24T03:52:46.500Z,9.83
2022-09-24T03:55:13.046Z,9.73
2022-09-24T03:57:39.491Z,9.69
2022-09-24T04:00:06.414Z,9.67
2022-09-24T04:02:32.960Z,9.58
2022-09-24T04:04:59.487Z,9.51
2022-09-24T04:07:25.972Z,9.54
2022-09-24T04:09:52.936Z,9.45
2022-09-24T04:12:20.191Z,9.46
2022-09-24T04:14:46.668Z,9.39
2022-09-24T04:17:14.563Z,9.30
2022-09-24T04:19:41.120Z,9.25
2022-09-24T04:22:07.668Z,9.20
2022-09-24T04:24:34.324Z,9.19
2022-09-24T04:27:00.883Z,9.15
2022-09-24T04:29:27.466Z,9.11
2022-09-24T04:31:54.087Z,9.19
2022-09-24T04:34:21.439Z,9.15
2022-09-24T04:36:47.933Z,9.04
2022-09-24T04:39:15.277Z,9.03
2022-09-24T04:41:41.792Z,8.94
2022-09-24T04:44:08.649Z,8.92
2022-09-24T04:46:35.272Z,8.91
2022-09-24T04:49:01.923Z,8.88
2022-09-24T04:51:28.718Z,8.91
2022-09-24T04:53:55.371Z,8.95
2022-09-24T04:56:21.988Z,8.88
2022-09-24T04:58:51.861Z,8.87
2022-09-24T05:01:19.398Z,8.95
2022-09-24T05:03:46.235Z,8.94
2022-09-24T05:06:13.647Z,8.94
2022-09-24T05:08:40.221Z,8.98
2022-09-24T05:11:06.779Z,9.00
2022-09-24T05:13:34.046Z,8.99
2022-09-24T05:16:01.174Z,9.01
2022-09-24T05:18:28.243Z,9.01
2022-09-24T05:20:54.954Z,9.05
2022-09-24T05:23:21.770Z,9.05
2022-09-24T05:26:11.120Z,9.11
2022-09-24T05:28:38.303Z,9.08
2022-09-24T05:31:04.934Z,9.03
2022-09-24T05:33:31.581Z,8.97
2022-09-24T05:35:58.356Z,9.05
2022-09-24T05:38:24.894Z,9.10
2022-09-24T05:40:51.604Z,9.22
2022-09-24T05:43:19.515Z,9.38
2022-09-24T05:45:46.371Z,9.49
2022-09-24T05:48:12.924Z,9.59
2022-09-24T05:50:39.454Z,9.61
2022-09-24T05:53:06.339Z,9.56
2022-09-24T05:55:33.605Z,9.57
2022-09-24T05:58:09.754Z,9.64
2022-09-24T06:00:36.808Z,9.74
2022-09-24T06:03:23.677Z,9.87
2022-09-24T06:05:50.894Z,9.94
2022-09-24T06:08:19.174Z,10.03
2022-09-24T06:10:47.524Z,10.08
2022-09-24T06:13:19.437Z,10.19
2022-09-24T06:15:46.494Z,10.29
2022-09-24T06:18:13.278Z,10.41
2022-09-24T06:20:40.338Z,10.50
2022-09-24T06:23:07.871Z,10.58
2022-09-24T06:25:34.417Z,10.64
2022-09-24T06:28:03.005Z,10.73
2022-09-24T06:30:33.329Z,10.85
2022-09-24T06:33:08.648Z,11.02
2022-09-24T06:35:36.491Z,11.13
2022-09-24T06:38:04.242Z,11.23
2022-09-24T06:40:35.682Z,11.33
2022-09-24T06:43:03.816Z,11.33
2022-09-24T06:45:30.322Z,11.30
2022-09-24T06:47:58.835Z,11.30
2022-09-24T06:50:28.199Z,11.30
2022-09-24T06:52:55.809Z,11.29
2022-09-24T06:55:22.804Z,11.27
2022-09-24T06:57:49.376Z,11.26
2022-09-24T07:00:16.557Z,11.33
2022-09-24T07:02:43.402Z,11.67
2022-09-24T07:05:10.366Z,12.14
2022-09-24T07:07:37.766Z,12.66
2022-09-24T07:10:07.335Z,13.14
2022-09-24T07:12:36.336Z,13.55
2022-09-24T07:15:03.779Z,13.85
2022-09-24T07:17:33.871Z,14.28
2022-09-24T07:20:01.059Z,14.57
2022-09-24T07:22:27.854Z,15.08
2022-09-24T07:24:54.379Z,15.73
2022-09-24T07:27:23.808Z,16.45
2022-09-24T07:29:50.418Z,16.98
2022-09-24T07:32:20.183Z,17.53
2022-09-24T07:34:46.866Z,17.41
2022-09-24T07:37:13.440Z,17.47
2022-09-24T07:39:39.979Z,17.28
2022-09-24T07:42:07.034Z,17.01
2022-09-24T07:44:33.565Z,16.80
2022-09-24T07:47:00.072Z,16.75
2022-09-24T07:49:26.821Z,16.69
2022-09-24T07:51:54.190Z,16.58
2022-09-24T07:54:20.715Z,17.10
2022-09-24T07:56:47.193Z,17.28
2022-09-24T07:59:13.973Z,17.76
2022-09-24T08:01:40.911Z,18.03
2022-09-24T08:04:07.636Z,18.52
2022-09-24T08:06:41.364Z,18.99
2022-09-24T08:09:10.179Z,19.12
2022-09-24T08:11:36.996Z,19.42
2022-09-24T08:14:03.725Z,19.20
2022-09-24T08:16:30.342Z,18.92
2022-09-24T08:18:56.912Z,19.12
2022-09-24T08:21:23.427Z,19.62
2022-09-24T08:23:49.994Z,19.85
2022-09-24T08:26:16.497Z,20.45
2022-09-24T08:28:43.055Z,20.98
2022-09-24T08:31:12.812Z,20.73
2022-09-24T08:33:39.878Z,21.01
2022-09-24T08:36:09.706Z,21.05
2022-09-24T08:38:36.662Z,21.57
2022-09-24T08:41:12.026Z,21.60
2022-09-24T08:44:12.074Z,21.66
2022-09-24T08:47:11.429Z,21.61
2022-09-24T08:49:44.124Z,21.47
2022-09-24T08:52:32.483Z,22.02
2022-09-24T08:55:06.116Z,22.15
2022-09-24T08:57:40.605Z,22.37
2022-09-24T09:00:13.931Z,22.48
2022-09-24T09:02:55.559Z,22.06
2022-09-24T09:05:40.005Z,22.55
2022-09-24T09:08:42.214Z,22.35
2022-09-24T09:11:07.638Z,22.21
2022-09-24T09:13:40.333Z,22.62
2022-09-24T09:16:11.048Z,23.18
2022-09-24T09:18:41.557Z,23.92
2022-09-24T09:21:17.371Z,23.29
2022-09-24T09:23:48.796Z,23.55
2022-09-24T09:26:18.374Z,22.68
2022-09-24T09:28:46.702Z,22.78
2022-09-24T09:31:52.459Z,23.19
2022-09-24T09:34:34.094Z,23.85
2022-09-24T09:37:29.794Z,24.09
2022-09-24T09:40:37.184Z,23.91
2022-09-24T09:43:10.111Z,23.95
2022-09-24T09:46:04.360Z,24.33
2022-09-24T09:48:44.317Z,24.26
2022-09-24T09:51:22.242Z,24.55
2022-09-24T09:53:59.883Z,24.22
2022-09-24T09:56:44.800Z,24.37
2022-09-24T09:59:11.285Z,24.76
2022-09-24T10:01:43.774Z,24.21
2022-09-24T10:04:36.091Z,23.71
2022-09-24T10:07:11.325Z,23.42
2022-09-24T10:09:39.725Z,22.64
2022-09-24T10:12:15.126Z,22.94
2022-09-24T10:14:42.720Z,23.11
2022-09-24T10:17:18.936Z,23.37
2022-09-24T10:19:51.138Z,24.08
2022-09-24T10:22:23.875Z,24.33
2022-09-24T10:24:51.772Z,23.95
2022-09-24T10:27:37.413Z,23.31
2022-09-24T10:30:35.517Z,23.63
2022-09-24T10:33:04.087Z,23.30
2022-09-24T10:35:35.712Z,23.00
2022-09-24T10:38:14.857Z,23.25
2022-09-24T10:40:41.855Z,23.44
2022-09-24T10:43:18.186Z,24.03
2022-09-24T10:45:59.534Z,23.93
2022-09-24T10:48:50.445Z,23.14
2022-09-24T10:51:36.686Z,23.62
2022-09-24T10:54:28.503Z,23.76
2022-09-24T10:56:57.351Z,23.87
2022-09-24T10:59:59.387Z,24.09
2022-09-24T11:02:42.585Z,23.59
2022-09-24T11:05:12.703Z,23.24
2022-09-24T11:07:57.526Z,23.30
2022-09-24T11:10:42.274Z,23.63
2022-09-24T11:13:40.564Z,23.89
2022-09-24T11:16:40.894Z,24.25
2022-09-24T11:19:19.270Z,24.78
2022-09-24T11:21:59.366Z,24.74
2022-09-24T11:25:03.281Z,23.85
2022-09-24T11:27:55.951Z,22.59
2022-09-24T11:30:54.805Z,22.14
2022-09-24T11:33:30.856Z,22.09
2022-09-24T11:36:30.956Z,22.09
2022-09-24T11:39:26.037Z,21.93
2022-09-24T11:42:19.861Z,21.73
2022-09-24T11:45:14.280Z,21.98
2022-09-24T11:48:15.187Z,22.84
2022-09-24T11:51:26.509Z,22.58
2022-09-24T11:54:26.491Z,22.54
2022-09-24T11:57:17.317Z,22.63
2022-09-24T11:59:54.129Z,22.57
2022-09-24T12:02:29.407Z,22.64
2022-09-24T12:05:06.948Z,21.96
2022-09-24T12:07:53.736Z,22.42
2022-09-24T12:10:26.605Z,22.91
2022-09-24T12:12:57.951Z,23.08
2022-09-24T12:15:30.267Z,22.72
2022-09-24T12:18:03.110Z,22.61
2022-09-24T12:20:31.711Z,22.70
2022-09-24T12:23:04.408Z,22.35
2022-09-24T12:25:42.484Z,22.85
2022-09-24T12:28:55.363Z,23.25
2022-09-24T12:31:57.440Z,23.51
2022-09-24T12:34:44.340Z,23.61
2022-09-24T12:37:16.620Z,23.85
2022-09-24T12:40:16.923Z,23.82
2022-09-24T12:42:51.715Z,23.52
2022-09-24T12:45:22.600Z,22.71
2022-09-24T12:48:01.257Z,22.00
2022-09-24T12:50:34.406Z,21.93
2022-09-24T12:53:01.155Z,22.17
2022-09-24T12:55:34.529Z,22.47
2022-09-24T12:58:06.279Z,22.09
2022-09-24T13:00:42.584Z,22.63
2022-09-24T13:03:47.481Z,22.65
2022-09-24T13:06:36.982Z,22.59
2022-09-24T13:09:25.878Z,22.71
2022-09-24T13:12:20.959Z,22.58
2022-09-24T13:15:02.790Z,22.39
2022-09-24T13:17:34.508Z,22.35
2022-09-24T13:20:07.448Z,22.01
2022-09-24T13:22:36.766Z,21.50
2022-09-24T13:25:09.628Z,21.24
2022-09-24T13:27:41.634Z,21.36
2022-09-24T13:30:17.263Z,21.58
2022-09-24T13:32:52.374Z,21.65
2022-09-24T13:35:24.373Z,21.66
2022-09-24T13:38:03.344Z,21.62
2022-09-24T13:40:37.202Z,21.52
2022-09-24T13:43:20.299Z,21.45
2022-09-24T13:45:47.741Z,21.66
2022-09-24T13:48:33.520Z,21.72
2022-09-24T13:51:02.999Z,21.93
2022-09-24T13:53:35.741Z,22.03
2022-09-24T13:56:17.517Z,22.14
2022-09-24T13:58:44.338Z,21.27
2022-09-24T14:01:19.866Z,21.22
2022-09-24T14:03:56.795Z,21.00
2022-09-24T14:06:34.695Z,21.16
2022-09-24T14:09:01.698Z,20.80
2022-09-24T14:11:28.334Z,21.02
2022-09-24T14:13:56.554Z,21.03
2022-09-24T14:16:25.787Z,20.82
2022-09-24T14:19:04.216Z,21.15
2022-09-24T14:21:33.365Z,21.25
2022-09-24T14:24:28.854Z,21.31
2022-09-24T14:27:19.561Z,21.27
2022-09-24T14:29:56.366Z,21.29
2022-09-24T14:32:27.423Z,21.04
2022-09-24T14:35:08.056Z,20.80
2022-09-24T14:37:38.790Z,21.04
2022-09-24T14:40:17.177Z,21.06
2022-09-24T14:42:55.144Z,20.93
2022-09-24T14:45:36.299Z,20.63
2022-09-24T14:48:17.478Z,20.23
2022-09-24T14:50:44.085Z,20.33
2022-09-24T14:53:19.703Z,20.17
2022-09-24T14:55:46.710Z,20.42
2022-09-24T14:58:22.837Z,20.60
2022-09-24T15:01:16.613Z,20.38
2022-09-24T15:03:59.291Z,20.48
2022-09-24T15:06:32.407Z,20.45
2022-09-24T15:09:05.660Z,20.57
2022-09-24T15:11:35.018Z,20.77
2022-09-24T15:14:13.603Z,20.76
2022-09-24T15:16:40.213Z,20.53
2022-09-24T15:19:06.687Z,20.47
2022-09-24T15:21:33.936Z,20.36
2022-09-24T15:24:00.705Z,20.21
2022-09-24T15:26:33.410Z,19.91
2022-09-24T15:29:01.636Z,19.98
2022-09-24T15:31:28.300Z,19.93
2022-09-24T15:33:56.197Z,19.87
2022-09-24T15:36:23.947Z,19.71
2022-09-24T15:38:52.459Z,19.60
2022-09-24T15:41:22.477Z,19.51
2022-09-24T15:43:49.013Z,19.43
2022-09-24T15:46:15.549Z,19.23
2022-09-24T15:48:42.177Z,19.39
2022-09-24T15:51:13.930Z,19.29
2022-09-24T15:53:42.156Z,19.14
2022-09-24T15:56:08.668Z,19.00
2022-09-24T15:58:35.250Z,18.98
2022-09-24T16:01:02.055Z,18.98
2022-09-24T16:03:31.545Z,18.74
2022-09-24T16:05:59.501Z,18.44
2022-09-24T16:08:26.926Z,18.50
2022-09-24T16:10:53.609Z,18.44
2022-09-24T16:13:22.516Z,18.34
2022-09-24T16:15:49.480Z,18.22
2022-09-24T16:18:17.975Z,18.18
2022-09-24T16:20:46.283Z,18.10
2022-09-24T16:23:14.933Z,18.04
2022-09-24T16:25:53.355Z,18.14
2022-09-24T16:28:19.829Z,18.08
2022-09-24T16:30:46.383Z,18.11
2022-09-24T16:33:13.359Z,18.15
2022-09-24T16:35:39.857Z,18.12
2022-09-24T16:38:06.469Z,18.03
2022-09-24T16:40:33.150Z,17.99
2022-09-24T16:43:00.124Z,17.99
2022-09-24T16:45:27.038Z,17.92
2022-09-24T16:47:53.532Z,17.88
2022-09-24T16:50:23.907Z,17.84
2022-09-24T16:52:54.870Z,17.77
2022-09-24T16:55:24.298Z,17.80
2022-09-24T16:57:54.156Z,17.74
2022-09-24T17:00:20.852Z,17.66
2022-09-24T17:02:47.555Z,17.59
2022-09-24T17:05:14.328Z,17.48
2022-09-24T17:07:40.960Z,17.36
2022-09-24T17:10:18.579Z,17.24
2022-09-24T17:12:48.806Z,17.10
2022-09-24T17:15:19.371Z,16.87
2022-09-24T17:17:50.315Z,16.86
2022-09-24T17:20:18.103Z,16.67
2022-09-24T17:22:44.883Z,16.60
2022-09-24T17:25:11.383Z,16.50
2022-09-24T17:27:40.187Z,16.38
2022-09-24T17:30:07.717Z,16.32
2022-09-24T17:32:34.258Z,16.29
2022-09-24T17:35:00.808Z,16.21
2022-09-24T17:37:27.617Z,16.16
2022-09-24T17:39:54.206Z,16.10
2022-09-24T17:42:20.679Z,16.02
2022-09-24T17:44:47.182Z,15.90
2022-09-24T17:47:13.698Z,15.66
2022-09-24T17:49:40.209Z,15.49
2022-09-24T17:52:07.006Z,15.46
2022-09-24T17:54:33.515Z,15.37
2022-09-24T17:57:02.008Z,15.25
2022-09-24T17:59:28.621Z,15.06
2022-09-24T18:01:55.332Z,15.05
2022-09-24T18:04:22.166Z,15.01
2022-09-24T18:06:49.780Z,14.99
2022-09-24T18:09:18.323Z,14.99
2022-09-24T18:11:47.856Z,14.89
2022-09-24T18:14:22.608Z,14.76
2022-09-24T18:16:49.736Z,14.72
2022-09-24T18:19:17.782Z,14.58
2022-09-24T18:21:45.804Z,14.29
2022-09-24T18:24:12.675Z,14.25
2022-09-24T18:26:40.030Z,14.34
2022-09-24T18:29:16.949Z,14.36
2022-09-24T18:31:44.845Z,14.34
2022-09-24T18:34:14.763Z,14.32
2022-09-24T18:36:43.086Z,14.31
2022-09-24T18:39:13.457Z,14.35
2022-09-24T18:41:41.796Z,14.37
2022-09-24T18:44:09.181Z,14.39
2022-09-24T18:46:35.869Z,14.38
2022-09-24T18:49:03.319Z,14.39
2022-09-24T18:51:32.545Z,14.35
2022-09-24T18:54:04.685Z,14.33
2022-09-24T18:56:31.910Z,14.26
2022-09-24T18:59:09.143Z,14.16
2022-09-24T19:01:37.107Z,14.06
2022-09-24T19:04:03.925Z,13.92
2022-09-24T19:06:31.692Z,13.91
2022-09-24T19:08:58.263Z,13.80
2022-09-24T19:11:24.777Z,13.67
2022-09-24T19:13:53.490Z,13.62
2022-09-24T19:16:23.756Z,13.57
2022-09-24T19:18:54.359Z,13.61
2022-09-24T19:21:24.396Z,13.62
2022-09-24T19:23:56.290Z,13.74
2022-09-24T19:26:25.820Z,13.81
2022-09-24T19:28:52.870Z,13.89
2022-09-24T19:31:34.930Z,13.95
2022-09-24T19:34:04.476Z,14.00
2022-09-24T19:36:37.430Z,14.06
2022-09-24T19:39:09.231Z,14.06
2022-09-24T19:41:35.850Z,14.01
2022-09-24T19:44:13.131Z,13.93
2022-09-24T19:46:41.165Z,13.78
2022-09-24T19:49:08.031Z,13.65
2022-09-24T19:51:35.573Z,13.56
2022-09-24T19:54:04.667Z,13.46
2022-09-24T19:56:32.157Z,13.36
2022-09-24T19:59:00.402Z,13.29
2022-09-24T20:01:29.356Z,13.24
2022-09-24T20:03:57.180Z,13.25
2022-09-24T20:06:27.177Z,13.29
2022-09-24T20:08:53.816Z,13.25
2022-09-24T20:11:22.599Z,13.19
2022-09-24T20:13:50.567Z,13.18
2022-09-24T20:16:22.741Z,13.16
2022-09-24T20:18:50.929Z,13.07
2022-09-24T20:21:18.992Z,13.02
2022-09-24T20:23:47.354Z,13.03
2022-09-24T20:26:33.988Z,13.02
2022-09-24T20:29:02.120Z,13.02
2022-09-24T20:31:29.414Z,12.99
2022-09-24T20:33:56.446Z,12.91
2022-09-24T20:36:24.819Z,12.87
2022-09-24T20:38:52.144Z,12.82
2022-09-24T20:41:24.055Z,12.70
2022-09-24T20:43:51.598Z,12.65
2022-09-24T20:46:24.182Z,12.52
2022-09-24T20:48:58.321Z,12.30
2022-09-24T20:51:26.392Z,12.26
2022-09-24T20:53:54.003Z,12.18
2022-09-24T20:56:21.467Z,12.15
2022-09-24T20:58:52.536Z,12.12
2022-09-24T21:01:20.852Z,12.12
2022-09-24T21:03:50.102Z,12.04
2022-09-24T21:06:18.286Z,12.03
2022-09-24T21:08:46.576Z,12.00
2022-09-24T21:11:19.253Z,11.92
2022-09-24T21:13:51.728Z,11.95
2022-09-24T21:16:20.847Z,11.95
2022-09-24T21:18:49.192Z,11.98
2022-09-24T21:21:21.175Z,11.96
2022-09-24T21:23:50.249Z,11.83
2022-09-24T21:26:20.464Z,11.83
2022-09-24T21:28:49.328Z,11.83
2022-09-24T21:31:18.904Z,11.84
2022-09-24T21:33:47.419Z,11.82
2022-09-24T21:36:18.684Z,11.86
2022-09-24T21:39:08.608Z,11.92
2022-09-24T21:41:37.565Z,11.91
2022-09-24T21:44:06.037Z,11.92
2022-09-24T21:46:33.705Z,11.91
2022-09-24T21:49:01.476Z,12.01
2022-09-24T21:51:30.290Z,11.94
2022-09-24T21:54:02.263Z,11.88
2022-09-24T21:56:30.101Z,11.83
2022-09-24T21:58:57.587Z,11.86
2022-09-24T22:01:29.796Z,11.83
2022-09-24T22:03:59.242Z,11.77
2022-09-24T22:06:28.963Z,11.60
2022-09-24T22:08:58.066Z,11.55
2022-09-24T22:11:26.437Z,11.48
2022-09-24T22:13:53.882Z,11.46
2022-09-24T22:16:20.542Z,11.44
2022-09-24T22:18:47.286Z,11.44
2022-09-24T22:21:15.358Z,11.48
2022-09-24T22:23:42.081Z,11.45
2022-09-24T22:26:10.736Z,11.40
2022-09-24T22:28:38.083Z,11.41
2022-09-24T22:31:09.617Z,11.35
2022-09-24T22:33:55.650Z,11.30
2022-09-24T22:36:23.314Z,11.25
2022-09-24T22:38:56.949Z,11.20
2022-09-24T22:41:24.514Z,11.14
2022-09-24T22:43:52.415Z,11.09
2022-09-24T22:46:19.659Z,11.01
2022-09-24T22:48:47.568Z,11.03
2022-09-24T22:51:14.920Z,10.94
2022-09-24T22:53:42.399Z,10.88
2022-09-24T22:56:17.401Z,10.84
2022-09-24T22:58:45.667Z,10.88
2022-09-24T23:01:16.966Z,10.94
2022-09-24T23:03:44.304Z,10.98
2022-09-24T23:06:14.515Z,10.94
2022-09-24T23:08:42.777Z,10.97
2022-09-24T23:11:14.822Z,11.01
2022-09-24T23:13:43.962Z,11.01
2022-09-24T23:16:18.582Z,10.98
2022-09-24T23:18:47.966Z,10.99
2022-09-24T23:21:17.207Z,10.94
2022-09-24T23:23:44.775Z,10.91
2022-09-24T23:26:18.516Z,10.88
2022-09-24T23:28:46.935Z,10.90
2022-09-24T23:31:14.782Z,10.87
2022-09-24T23:33:42.467Z,10.83
2022-09-24T23:36:11.731Z,10.77
2022-09-24T23:38:38.864Z,10.90
2022-09-24T23:41:06.614Z,10.87
2022-09-24T23:43:33.390Z,10.91
2022-09-24T23:46:00.426Z,10.94
2022-09-24T23:48:27.047Z,10.92
2022-09-24T23:50:54.017Z,10.78
2022-09-24T23:53:22.054Z,10.65
2022-09-24T23:55:49.495Z,10.52
2022-09-24T23:58:18.398Z,10.51
